aviador You're here:

YSRI Decoded Metar

RICHMOND in AUSTRALIA
Report Time2018-01-21 06:00:00
UTC Time2018-01-21 06:39:13
Flight Rules vfr VFR
Wind080° at 13 kt
W.Decomp.*RWY 10: 11.0 kt HW 6.9 kt LCW
W.Rank080° ranks 13
Current wind is above 080° avg. (5.6)
Visibility9999 m
Phenomena:N/A
Clouds:N/A
Expected CloudBase > 9,200 ft AGL from Temp-Dew spread
CeilingNone
Temp36°C (ISA +21)
Dew Point13°C (25% RH)
Heat Index35.0°C
AAT32.2°C
QNH1007 hPa
Density Alt2,864 ft
Elevation69 ft
Report Wrong Elevation
Raw Report
YSRI 210600Z AUTO 08013KT 9999 // NCD 36/13 Q1007=

Extra information for YSRI:More info

Metar Taf Metar & Taf Last 4 Metars F.Rules Stats Wind Profile Meteogram Temp Stats Airport Information Weather charts Add Link Nearby VenuesMetar ALERT Operation Metar Decoded Social comments